Time;durP1;ratioP1;P1;durP2;ratioP2;P2;SDS_P1;SDS_P2;PMS_P1;PMS_P2;Temp;Humidity;BMP_temperature;BMP_pressure;BME280_temperature;BME280_humidity;BME280_pressure;Samples;Min_cycle;Max_cycle;Signal;HPM_P1;HPM_P2
2022/02/19 00:00:26;;;;;;;;;;;;;;;16.78;59.82;100262.84;2035378;28;19918;-46
2022/02/19 00:01:27;;;;;;;;;;;;;;;16.78;60.00;100263.75;2033174;28;20275;-46
2022/02/19 00:02:28;;;;;;;;;;;;;;;16.77;59.79;100266.56;2034546;28;19918;-47
2022/02/19 00:03:31;;;;;;;;;;;;;;;16.77;59.80;100272.03;2039542;28;20280;-47
2022/02/19 00:04:31;;;;;;;;;;;;;;;16.77;59.89;100266.56;2036721;28;20470;-46
2022/02/19 00:05:32;;;;;;;;;;;;;;;16.76;60.01;100270.31;2036186;28;20044;-46
2022/02/19 00:06:37;;;;;;;;;;;;;;;16.76;59.90;100275.75;2036659;28;19964;-47
2022/02/19 00:07:38;;;;;;;;;;;;;;;16.75;59.90;100282.16;2044202;28;20431;-47
2022/02/19 00:08:38;;;;;;;;;;;;;;;16.75;59.89;100279.44;2044407;28;19922;-47
2022/02/19 00:09:38;;;;;;;;;;;;;;;16.74;60.11;100283.19;2037139;28;20376;-47
2022/02/19 00:10:39;;;;;;;;;;;;;;;16.74;59.89;100275.00;2035414;28;19919;-47
2022/02/19 00:11:40;;;;;;;;;;;;;;;16.74;59.83;100280.44;2035771;28;19929;-47
2022/02/19 00:12:40;;;;;;;;;;;;;;;16.74;60.14;100289.47;2032127;28;20320;-47
2022/02/19 00:13:40;;;;;;;;;;;;;;;16.73;60.01;100276.84;2036678;28;19922;-47
2022/02/19 00:14:41;;;;;;;;;;;;;;;16.74;59.97;100288.63;2036500;28;19929;-47
2022/02/19 00:15:41;;;;;;;;;;;;;;;16.74;60.10;100288.63;2036167;28;19957;-47
2022/02/19 00:16:41;;;;;;;;;;;;;;;16.72;60.00;100281.44;2039130;28;19922;-46
2022/02/19 00:17:42;;;;;;;;;;;;;;;16.72;59.93;100286.88;2034144;28;20753;-47
2022/02/19 00:18:42;;;;;;;;;;;;;;;16.74;60.01;100285.91;2035489;28;20515;-47
2022/02/19 00:19:42;;;;;;;;;;;;;;;16.72;59.99;100280.56;2035774;28;19965;-46
2022/02/19 00:20:43;;;;;;;;;;;;;;;16.71;59.98;100281.56;2036660;28;20017;-47
2022/02/19 00:21:43;;;;;;;;;;;;;;;16.71;59.78;100285.16;2037930;28;19922;-47
2022/02/19 00:22:43;;;;;;;;;;;;;;;16.74;60.00;100288.63;2036226;28;20180;-46
2022/02/19 00:23:44;;;;;;;;;;;;;;;16.72;59.95;100286.03;2037966;28;19984;-47
2022/02/19 00:24:44;;;;;;;;;;;;;;;16.72;60.02;100297.75;2038343;28;19973;-49
2022/02/19 00:25:44;;;;;;;;;;;;;;;16.72;59.92;100294.19;2036845;28;20277;-47
2022/02/19 00:26:44;;;;;;;;;;;;;;;16.72;59.80;100297.75;2039852;28;19918;-47
2022/02/19 00:27:45;;;;;;;;;;;;;;;16.72;59.83;100294.19;2037991;28;19930;-48
2022/02/19 00:28:46;;;;;;;;;;;;;;;16.73;59.74;100298.63;2032846;28;19922;-47
2022/02/19 00:29:46;;;;;;;;;;;;;;;16.71;59.88;100293.31;2035846;29;20469;-47
2022/02/19 00:30:46;;;;;;;;;;;;;;;16.71;60.03;100296.03;2036264;28;19918;-47
2022/02/19 00:31:47;;;;;;;;;;;;;;;16.71;59.80;100301.50;2035790;28;20443;-46
2022/02/19 00:32:48;;;;;;;;;;;;;;;16.71;59.75;100293.31;2034555;29;20336;-47
2022/02/19 00:33:49;;;;;;;;;;;;;;;16.71;59.88;100295.19;2035969;28;19918;-47
2022/02/19 00:34:49;;;;;;;;;;;;;;;16.70;59.83;100297.03;2037443;28;20231;-47
2022/02/19 00:35:49;;;;;;;;;;;;;;;16.71;60.10;100290.59;2035518;28;19961;-47
2022/02/19 00:36:50;;;;;;;;;;;;;;;16.70;60.02;100291.56;2035529;28;20084;-47
2022/02/19 00:37:50;;;;;;;;;;;;;;;16.70;59.70;100288.00;2037055;29;19922;-47
2022/02/19 00:38:50;;;;;;;;;;;;;;;16.70;59.90;100288.84;2036725;28;19924;-47
2022/02/19 00:39:51;;;;;;;;;;;;;;;16.69;59.79;100286.28;2036139;28;19929;-46
2022/02/19 00:40:51;;;;;;;;;;;;;;;16.68;59.91;100288.16;2037264;28;19915;-47
2022/02/19 00:41:52;;;;;;;;;;;;;;;16.68;59.74;100285.44;2035733;28;20377;-46
2022/02/19 00:42:52;;;;;;;;;;;;;;;16.68;59.93;100285.44;2038204;28;19969;-47
2022/02/19 00:43:53;;;;;;;;;;;;;;;16.69;59.84;100280.84;2036332;28;19915;-47
2022/02/19 00:44:53;;;;;;;;;;;;;;;16.67;59.88;100283.69;2035707;28;19977;-46
2022/02/19 00:45:56;;;;;;;;;;;;;;;16.67;59.90;100289.13;2036438;28;19922;-46
2022/02/19 00:46:56;;;;;;;;;;;;;;;16.67;60.07;100283.69;2035179;28;20044;-47
2022/02/19 00:47:57;;;;;;;;;;;;;;;16.65;59.99;100284.81;2037363;28;19926;-47
2022/02/19 00:48:59;;;;;;;;;;;;;;;16.64;59.96;100289.38;2034513;28;19907;-47
2022/02/19 00:49:59;;;;;;;;;;;;;;;16.66;60.14;100287.41;2033577;28;20659;-47
2022/02/19 00:50:59;;;;;;;;;;;;;;;16.65;60.04;100284.81;2033289;29;20139;-47
2022/02/19 00:52:00;;;;;;;;;;;;;;;16.65;59.89;100291.09;2037818;28;20153;-47
2022/02/19 00:53:00;;;;;;;;;;;;;;;16.65;60.07;100291.09;2034827;28;20133;-47
2022/02/19 00:54:01;;;;;;;;;;;;;;;16.64;60.13;100289.38;2039462;28;19937;-47
2022/02/19 00:55:01;;;;;;;;;;;;;;;16.65;60.08;100284.81;2039140;28;19925;-47
2022/02/19 00:56:01;;;;;;;;;;;;;;;16.65;60.24;100291.09;2038779;28;19926;-47
2022/02/19 00:57:02;;;;;;;;;;;;;;;16.64;60.08;100294.84;2038234;28;20005;-47
2022/02/19 00:58:02;;;;;;;;;;;;;;;16.64;60.14;100289.38;2045857;28;20174;-47
2022/02/19 00:59:02;;;;;;;;;;;;;;;16.65;59.99;100287.53;2042787;28;19922;-47
2022/02/19 01:00:04;;;;;;;;;;;;;;;16.65;59.84;100290.25;2035446;28;20363;-47
2022/02/19 01:01:04;;;;;;;;;;;;;;;16.64;60.11;100294.84;2037131;28;19918;-48
2022/02/19 01:02:05;;;;;;;;;;;;;;;16.64;60.07;100291.25;2038996;28;19926;-47
2022/02/19 01:03:05;;;;;;;;;;;;;;;16.63;60.09;100293.09;2045284;28;19934;-47
2022/02/19 01:04:05;;;;;;;;;;;;;;;16.65;60.06;100290.25;2044101;28;20617;-47
2022/02/19 01:05:06;;;;;;;;;;;;;;;16.64;59.90;100288.53;2035787;28;19918;-47
2022/02/19 01:06:07;;;;;;;;;;;;;;;16.64;59.99;100292.13;2036407;28;19999;-47
2022/02/19 01:07:07;;;;;;;;;;;;;;;16.64;59.96;100294.84;2036525;28;19930;-47
2022/02/19 01:08:07;;;;;;;;;;;;;;;16.65;59.99;100291.09;2036231;28;19969;-47
2022/02/19 01:09:08;;;;;;;;;;;;;;;16.65;60.00;100290.25;2036843;28;19922;-47
2022/02/19 01:10:08;;;;;;;;;;;;;;;16.65;60.05;100290.25;2035516;28;19929;-46
2022/02/19 01:11:09;;;;;;;;;;;;;;;16.63;59.93;100290.38;2044808;28;20296;-47
2022/02/19 01:12:10;;;;;;;;;;;;;;;16.65;59.92;100290.25;2040775;28;20112;-46
2022/02/19 01:13:10;;;;;;;;;;;;;;;16.64;60.09;100283.94;2037521;28;19926;-47
2022/02/19 01:14:12;;;;;;;;;;;;;;;16.64;60.05;100283.94;2035903;28;19922;-47
2022/02/19 01:15:12;;;;;;;;;;;;;;;16.64;60.08;100294.84;2043684;28;20374;-47
2022/02/19 01:16:13;;;;;;;;;;;;;;;16.64;60.01;100293.97;2043581;28;19922;-47
2022/02/19 01:17:14;;;;;;;;;;;;;;;16.63;60.10;100290.38;2036447;28;20249;-47
2022/02/19 01:18:14;;;;;;;;;;;;;;;16.62;60.11;100294.09;2037471;28;19966;-47
2022/02/19 01:19:15;;;;;;;;;;;;;;;16.63;60.11;100298.53;2036051;28;19915;-46
2022/02/19 01:20:15;;;;;;;;;;;;;;;16.62;59.92;100290.50;2035876;28;19923;-46
2022/02/19 01:21:17;;;;;;;;;;;;;;;16.63;60.00;100297.66;2038294;28;20043;-47
2022/02/19 01:22:17;;;;;;;;;;;;;;;16.63;60.08;100294.94;2036439;28;19926;-47
2022/02/19 01:23:17;;;;;;;;;;;;;;;16.61;60.02;100297.81;2040634;28;20310;-47
2022/02/19 01:24:20;;;;;;;;;;;;;;;16.62;60.05;100294.09;2036680;28;19950;-47
2022/02/19 01:25:20;;;;;;;;;;;;;;;16.61;60.01;100299.66;2036232;28;19970;-46
2022/02/19 01:26:20;;;;;;;;;;;;;;;16.60;60.22;100298.78;2038390;28;19933;-47
2022/02/19 01:27:21;;;;;;;;;;;;;;;16.60;60.12;100296.06;2036943;28;20229;-47
2022/02/19 01:28:21;;;;;;;;;;;;;;;16.61;59.97;100305.09;2037516;28;19975;-47
2022/02/19 01:29:21;;;;;;;;;;;;;;;16.60;60.20;100303.38;2040033;28;19914;-47
2022/02/19 01:30:22;;;;;;;;;;;;;;;16.60;60.22;100298.78;2038445;28;20655;-46
2022/02/19 01:31:24;;;;;;;;;;;;;;;16.60;60.11;100300.66;2040407;28;19922;-47
2022/02/19 01:32:25;;;;;;;;;;;;;;;16.59;60.15;100304.38;2036575;28;19966;-47
2022/02/19 01:33:25;;;;;;;;;;;;;;;16.58;60.18;100305.34;2038656;28;19966;-47
2022/02/19 01:34:25;;;;;;;;;;;;;;;16.58;60.17;100300.78;2039432;28;20024;-46
2022/02/19 01:35:26;;;;;;;;;;;;;;;16.57;60.05;100293.63;2038525;28;19938;-47
2022/02/19 01:36:26;;;;;;;;;;;;;;;16.58;60.08;100298.06;2042382;28;19989;-47
2022/02/19 01:37:26;;;;;;;;;;;;;;;16.57;60.20;100303.66;2041209;28;19918;-47
2022/02/19 01:38:28;;;;;;;;;;;;;;;16.57;59.98;100304.50;2039861;28;20080;-47
2022/02/19 01:39:29;;;;;;;;;;;;;;;16.58;60.12;100297.19;2040013;28;19940;-47
2022/02/19 01:40:30;;;;;;;;;;;;;;;16.58;60.27;100305.34;2034500;28;19923;-47
2022/02/19 01:41:30;;;;;;;;;;;;;;;16.58;60.10;100299.91;2037185;28;19918;-47
2022/02/19 01:42:30;;;;;;;;;;;;;;;16.58;59.97;100311.66;2035767;28;19923;-47
2022/02/19 01:43:31;;;;;;;;;;;;;;;16.58;60.09;100306.22;2034327;28;19915;-47
2022/02/19 01:44:35;;;;;;;;;;;;;;;16.59;60.00;100307.09;2041179;28;19969;-47
2022/02/19 01:45:36;;;;;;;;;;;;;;;16.58;60.06;100306.22;2034638;28;19977;-46
2022/02/19 01:46:36;;;;;;;;;;;;;;;16.57;59.99;100299.06;2037629;28;20266;-47
2022/02/19 01:47:37;;;;;;;;;;;;;;;16.58;60.15;100306.22;2040592;28;19915;-47
2022/02/19 01:48:37;;;;;;;;;;;;;;;16.58;60.06;100302.63;2034309;28;19930;-47
2022/02/19 01:49:38;;;;;;;;;;;;;;;16.58;60.17;100302.63;2036843;28;20238;-46
2022/02/19 01:50:38;;;;;;;;;;;;;;;16.57;60.08;100304.50;2037617;28;19922;-47
2022/02/19 01:51:38;;;;;;;;;;;;;;;16.58;60.23;100299.91;2034952;28;19942;-46
2022/02/19 01:52:40;;;;;;;;;;;;;;;16.57;60.02;100307.22;2042311;28;19914;-47
2022/02/19 01:53:40;;;;;;;;;;;;;;;16.58;59.85;100306.22;2036743;28;19922;-47
2022/02/19 01:54:41;;;;;;;;;;;;;;;16.58;59.90;100305.34;2036854;28;19980;-47
2022/02/19 01:55:42;;;;;;;;;;;;;;;16.57;60.12;100299.06;2044331;28;20593;-47
2022/02/19 01:56:43;;;;;;;;;;;;;;;16.58;60.07;100299.91;2042391;28;20329;-47
2022/02/19 01:57:43;;;;;;;;;;;;;;;16.57;60.25;100301.78;2040879;28;20018;-47
2022/02/19 01:58:44;;;;;;;;;;;;;;;16.56;60.03;100294.63;2037381;28;20014;-46
2022/02/19 01:59:44;;;;;;;;;;;;;;;16.57;60.22;100299.06;2036928;28;19927;-47
2022/02/19 02:00:44;;;;;;;;;;;;;;;16.56;60.19;100296.47;2038699;28;20472;-47
2022/02/19 02:01:45;;;;;;;;;;;;;;;16.55;60.24;100292.88;2035677;28;20017;-47
2022/02/19 02:02:45;;;;;;;;;;;;;;;16.56;60.09;100296.47;2044167;28;19969;-46
2022/02/19 02:03:46;;;;;;;;;;;;;;;16.54;60.14;100293.03;2045811;28;20039;-47
2022/02/19 02:04:46;;;;;;;;;;;;;;;16.55;60.09;100298.31;2038355;28;20032;-47
2022/02/19 02:05:47;;;;;;;;;;;;;;;16.54;60.19;100288.44;2036953;28;19927;-46
2022/02/19 02:06:48;;;;;;;;;;;;;;;16.54;60.09;100291.16;2035884;28;20309;-46
2022/02/19 02:07:48;;;;;;;;;;;;;;;16.53;60.10;100281.25;2033882;28;19949;-47
2022/02/19 02:08:49;;;;;;;;;;;;;;;16.54;60.17;100284.88;2037205;28;19948;-47
2022/02/19 02:09:49;;;;;;;;;;;;;;;16.53;60.30;100292.13;2036434;28;20445;-47
2022/02/19 02:10:49;;;;;;;;;;;;;;;16.52;60.08;100279.53;2032167;28;20712;-47
2022/02/19 02:11:52;;;;;;;;;;;;;;;16.52;60.19;100284.97;2034918;28;20297;-47
2022/02/19 02:12:52;;;;;;;;;;;;;;;16.52;60.20;100290.41;2035710;28;20150;-47
2022/02/19 02:13:52;;;;;;;;;;;;;;;16.53;59.97;100297.59;2038377;28;20436;-47
2022/02/19 02:14:53;;;;;;;;;;;;;;;16.52;60.25;100293.13;2037982;28;19923;-47
2022/02/19 02:15:53;;;;;;;;;;;;;;;16.52;60.13;100295.88;2037718;28;19978;-47
2022/02/19 02:16:53;;;;;;;;;;;;;;;16.52;60.32;100290.41;2036369;28;20286;-47
2022/02/19 02:17:55;;;;;;;;;;;;;;;16.52;60.23;100284.97;2040308;28;19929;-47
2022/02/19 02:18:56;;;;;;;;;;;;;;;16.52;60.35;100295.88;2041264;28;19922;-48
2022/02/19 02:19:56;;;;;;;;;;;;;;;16.52;60.18;100287.69;2033474;28;19923;-48
2022/02/19 02:20:56;;;;;;;;;;;;;;;16.52;60.22;100290.41;2034735;28;20017;-48
2022/02/19 02:21:57;;;;;;;;;;;;;;;16.52;60.02;100289.56;2034980;28;19925;-48
2022/02/19 02:22:57;;;;;;;;;;;;;;;16.53;60.06;100294.84;2035723;29;20346;-48
2022/02/19 02:23:58;;;;;;;;;;;;;;;16.52;60.12;100290.41;2030139;28;19924;-48
2022/02/19 02:24:58;;;;;;;;;;;;;;;16.52;60.38;100286.84;2034713;28;19923;-47
2022/02/19 02:26:00;;;;;;;;;;;;;;;16.51;60.19;100288.69;2035864;28;20202;-47
2022/02/19 02:27:03;;;;;;;;;;;;;;;16.52;60.27;100290.41;2033985;28;20013;-47
2022/02/19 02:28:04;;;;;;;;;;;;;;;16.52;60.29;100290.41;2036472;28;20009;-48
2022/02/19 02:29:05;;;;;;;;;;;;;;;16.53;60.28;100285.84;2038003;28;19929;-48
2022/02/19 02:30:05;;;;;;;;;;;;;;;16.53;60.11;100296.72;2042476;28;20234;-48
2022/02/19 02:31:06;;;;;;;;;;;;;;;16.52;60.23;100292.28;2043074;28;20017;-48
2022/02/19 02:32:06;;;;;;;;;;;;;;;16.52;60.27;100289.56;2029944;29;19962;-47
2022/02/19 02:33:08;;;;;;;;;;;;;;;16.50;60.24;100282.38;2034992;28;20521;-48
2022/02/19 02:34:08;;;;;;;;;;;;;;;16.52;60.05;100290.41;2037109;28;19930;-47
2022/02/19 02:35:08;;;;;;;;;;;;;;;16.52;60.36;100290.41;2032892;28;19966;-48
2022/02/19 02:36:09;;;;;;;;;;;;;;;16.51;60.22;100288.69;2034594;28;19915;-48
2022/02/19 02:37:09;;;;;;;;;;;;;;;16.52;60.22;100278.69;2043769;28;20025;-48
2022/02/19 02:38:10;;;;;;;;;;;;;;;16.51;60.03;100283.22;2045057;28;19922;-48
2022/02/19 02:39:10;;;;;;;;;;;;;;;16.49;60.24;100275.22;2033025;28;19933;-48
2022/02/19 02:40:11;;;;;;;;;;;;;;;16.51;60.13;100280.50;2035798;28;19950;-47
2022/02/19 02:41:12;;;;;;;;;;;;;;;16.49;60.06;100280.66;2035583;28;19929;-48
2022/02/19 02:42:12;;;;;;;;;;;;;;;16.50;60.13;100271.50;2034671;28;20369;-47
2022/02/19 02:43:13;;;;;;;;;;;;;;;16.50;60.42;100271.50;2035495;28;20026;-48
2022/02/19 02:44:13;;;;;;;;;;;;;;;16.48;60.22;100273.47;2033511;29;20399;-48
2022/02/19 02:45:13;;;;;;;;;;;;;;;16.48;60.14;100278.06;2042627;28;20008;-47
2022/02/19 02:46:14;;;;;;;;;;;;;;;16.48;60.23;100269.88;2042939;28;20735;-48
2022/02/19 02:47:14;;;;;;;;;;;;;;;16.48;60.22;100268.03;2036133;28;20171;-48
2022/02/19 02:48:14;;;;;;;;;;;;;;;16.48;60.11;100267.16;2038511;28;19989;-48
2022/02/19 02:49:15;;;;;;;;;;;;;;;16.48;60.13;100269.88;2033088;28;20450;-48
2022/02/19 02:50:15;;;;;;;;;;;;;;;16.48;60.15;100272.63;2037234;28;19921;-48
2022/02/19 02:51:15;;;;;;;;;;;;;;;16.47;60.26;100276.34;2030854;28;19981;-48
2022/02/19 02:52:15;;;;;;;;;;;;;;;16.47;60.15;100276.34;2034974;28;19914;-47
2022/02/19 02:53:16;;;;;;;;;;;;;;;16.47;60.09;100277.19;2035643;28;20583;-48
2022/02/19 02:54:16;;;;;;;;;;;;;;;16.47;60.23;100270.91;2039079;28;20123;-48
2022/02/19 02:55:17;;;;;;;;;;;;;;;16.47;60.14;100277.19;2035743;28;19923;-48
2022/02/19 02:56:17;;;;;;;;;;;;;;;16.46;60.03;100274.59;2036073;29;19914;-48
2022/02/19 02:57:17;;;;;;;;;;;;;;;16.47;60.11;100279.06;2034396;28;19920;-48
2022/02/19 02:58:18;;;;;;;;;;;;;;;16.46;60.29;100282.75;2037185;28;19914;-48
2022/02/19 02:59:18;;;;;;;;;;;;;;;16.46;60.12;100280.03;2033328;28;19918;-48
2022/02/19 03:00:18;;;;;;;;;;;;;;;16.46;60.12;100282.75;2036312;28;19962;-48
2022/02/19 03:01:18;;;;;;;;;;;;;;;16.46;60.17;100285.47;2034068;28;19974;-48
2022/02/19 03:02:19;;;;;;;;;;;;;;;16.46;60.42;100285.47;2042986;28;19961;-48
2022/02/19 03:03:19;;;;;;;;;;;;;;;16.46;60.10;100285.47;2039118;28;20353;-47
2022/02/19 03:04:20;;;;;;;;;;;;;;;16.46;60.17;100286.38;2043842;28;19928;-48
2022/02/19 03:05:21;;;;;;;;;;;;;;;16.46;60.25;100282.75;2036553;28;19911;-48
2022/02/19 03:06:21;;;;;;;;;;;;;;;16.46;60.26;100280.03;2034474;28;20404;-48
2022/02/19 03:07:22;;;;;;;;;;;;;;;16.46;60.22;100280.03;2038225;28;19923;-48
2022/02/19 03:08:23;;;;;;;;;;;;;;;16.46;60.20;100280.03;2033385;29;19923;-48
2022/02/19 03:09:23;;;;;;;;;;;;;;;16.45;60.16;100278.31;2043587;28;20724;-48
2022/02/19 03:10:24;;;;;;;;;;;;;;;16.46;60.16;100274.59;2040825;28;19946;-48
2022/02/19 03:11:24;;;;;;;;;;;;;;;16.46;59.99;100283.66;2036434;28;20285;-45
2022/02/19 03:12:25;;;;;;;;;;;;;;;16.45;60.17;100284.63;2040617;28;20226;-46
2022/02/19 03:13:25;;;;;;;;;;;;;;;16.46;60.20;100277.31;2035728;28;20021;-45
2022/02/19 03:14:26;;;;;;;;;;;;;;;16.46;60.08;100280.03;2035224;28;19926;-45
2022/02/19 03:15:26;;;;;;;;;;;;;;;16.46;60.22;100285.47;2034073;28;19930;-47
2022/02/19 03:16:27;;;;;;;;;;;;;;;16.45;60.17;100279.19;2035248;28;19922;-47
2022/02/19 03:17:27;;;;;;;;;;;;;;;16.46;60.04;100274.59;2041291;28;19921;-47
2022/02/19 03:18:27;;;;;;;;;;;;;;;16.46;60.24;100274.59;2034435;28;20683;-47
2022/02/19 03:19:28;;;;;;;;;;;;;;;16.44;60.14;100277.47;2035868;28;20238;-47
2022/02/19 03:20:28;;;;;;;;;;;;;;;16.45;60.38;100272.88;2035162;28;20428;-47
2022/02/19 03:21:28;;;;;;;;;;;;;;;16.44;60.32;100273.88;2035870;28;19914;-47
2022/02/19 03:22:28;;;;;;;;;;;;;;;16.44;60.00;100271.16;2034994;28;19941;-47
2022/02/19 03:23:29;;;;;;;;;;;;;;;16.44;60.27;100268.44;2035298;28;20278;-47
2022/02/19 03:24:30;;;;;;;;;;;;;;;16.43;59.97;100272.13;2034090;28;19938;-47
2022/02/19 03:25:30;;;;;;;;;;;;;;;16.43;60.28;100269.41;2035870;28;20211;-47
2022/02/19 03:26:30;;;;;;;;;;;;;;;16.43;60.23;100263.97;2035051;28;19922;-49
2022/02/19 03:27:31;;;;;;;;;;;;;;;16.43;60.21;100269.41;2041979;28;19922;-47
2022/02/19 03:28:31;;;;;;;;;;;;;;;16.42;60.22;100275.88;2037675;28;19961;-47
2022/02/19 03:29:34;;;;;;;;;;;;;;;16.42;60.17;100278.59;2035452;28;19962;-47
2022/02/19 03:30:34;;;;;;;;;;;;;;;16.42;60.24;100278.59;2034224;28;19922;-48
2022/02/19 03:31:34;;;;;;;;;;;;;;;16.41;60.18;100269.56;2037001;28;19945;-47
2022/02/19 03:32:35;;;;;;;;;;;;;;;16.41;60.13;100276.84;2038105;28;19928;-47
2022/02/19 03:33:35;;;;;;;;;;;;;;;16.41;60.07;100274.13;2036920;28;19923;-48
2022/02/19 03:34:36;;;;;;;;;;;;;;;16.41;60.20;100265.94;2033408;28;19969;-47
2022/02/19 03:35:37;;;;;;;;;;;;;;;16.41;60.27;100271.41;2036214;28;20028;-49
2022/02/19 03:36:37;;;;;;;;;;;;;;;16.41;60.21;100276.84;2036523;28;19927;-47
2022/02/19 03:37:39;;;;;;;;;;;;;;;16.41;60.08;100274.13;2042481;28;19922;-47
2022/02/19 03:38:39;;;;;;;;;;;;;;;16.41;60.22;100274.13;2036658;28;19927;-47
2022/02/19 03:39:40;;;;;;;;;;;;;;;16.40;60.29;100269.69;2046349;28;20353;-47
2022/02/19 03:40:40;;;;;;;;;;;;;;;16.42;60.16;100278.59;2038412;28;20355;-47
2022/02/19 03:41:40;;;;;;;;;;;;;;;16.41;60.14;100276.84;2038172;28;19950;-48
2022/02/19 03:42:41;;;;;;;;;;;;;;;16.41;60.31;100271.41;2029787;28;19922;-47
2022/02/19 03:43:41;;;;;;;;;;;;;;;16.42;59.98;100273.16;2038151;28;19958;-47
2022/02/19 03:44:42;;;;;;;;;;;;;;;16.41;60.20;100271.41;2038186;29;19929;-47
2022/02/19 03:45:43;;;;;;;;;;;;;;;16.40;60.08;100270.53;2037114;28;19922;-47
2022/02/19 03:46:44;;;;;;;;;;;;;;;16.41;60.11;100268.69;2038441;28;19926;-47
2022/02/19 03:47:44;;;;;;;;;;;;;;;16.41;60.22;100274.13;2038420;28;20690;-47
2022/02/19 03:48:44;;;;;;;;;;;;;;;16.41;60.06;100274.13;2038979;28;19922;-48
2022/02/19 03:49:45;;;;;;;;;;;;;;;16.40;60.04;100270.53;2030183;28;19929;-47
2022/02/19 03:50:46;;;;;;;;;;;;;;;16.40;60.05;100275.13;2035956;28;19995;-47
2022/02/19 03:51:46;;;;;;;;;;;;;;;16.41;59.94;100276.84;2038111;28;19929;-47
2022/02/19 03:52:46;;;;;;;;;;;;;;;16.41;60.11;100277.72;2037594;28;20031;-48
2022/02/19 03:53:47;;;;;;;;;;;;;;;16.40;60.01;100275.97;2037460;28;20352;-47
2022/02/19 03:54:47;;;;;;;;;;;;;;;16.40;60.15;100280.56;2037065;29;20000;-47
2022/02/19 03:55:47;;;;;;;;;;;;;;;16.41;60.17;100276.84;2040245;28;19968;-47
2022/02/19 03:56:47;;;;;;;;;;;;;;;16.41;60.08;100279.56;2039029;28;20199;-47
2022/02/19 03:57:48;;;;;;;;;;;;;;;16.40;60.10;100275.13;2038147;28;19918;-47
2022/02/19 03:58:48;;;;;;;;;;;;;;;16.40;60.10;100277.84;2042178;28;19918;-47
2022/02/19 03:59:48;;;;;;;;;;;;;;;16.40;60.27;100280.56;2035742;28;20298;-48
2022/02/19 04:00:48;;;;;;;;;;;;;;;16.38;60.08;100283.41;2036380;28;19918;-47
2022/02/19 04:01:49;;;;;;;;;;;;;;;16.39;60.27;100285.16;2037153;28;19922;-47
2022/02/19 04:02:49;;;;;;;;;;;;;;;16.40;60.04;100275.13;2034495;28;19918;-47
2022/02/19 04:03:50;;;;;;;;;;;;;;;16.38;60.19;100283.41;2039139;28;19944;-47
2022/02/19 04:04:50;;;;;;;;;;;;;;;16.39;60.17;100278.81;2038814;28;19953;-47
2022/02/19 04:05:50;;;;;;;;;;;;;;;16.37;60.39;100275.38;2037902;28;19922;-47
2022/02/19 04:06:51;;;;;;;;;;;;;;;16.37;60.06;100275.38;2040658;28;21363;-47
2022/02/19 04:07:51;;;;;;;;;;;;;;;16.37;60.12;100275.38;2037515;28;20229;-47
2022/02/19 04:08:51;;;;;;;;;;;;;;;16.37;60.17;100269.94;2036530;28;19929;-47
2022/02/19 04:09:52;;;;;;;;;;;;;;;16.38;60.12;100277.09;2037017;28;20123;-47
2022/02/19 04:10:52;;;;;;;;;;;;;;;16.36;60.12;100268.19;2040834;28;19918;-47
2022/02/19 04:11:53;;;;;;;;;;;;;;;16.37;60.24;100278.09;2038385;28;19919;-47
2022/02/19 04:12:53;;;;;;;;;;;;;;;16.36;60.20;100276.34;2038892;28;19918;-47
2022/02/19 04:13:53;;;;;;;;;;;;;;;16.35;60.21;100267.34;2039899;28;19962;-47
2022/02/19 04:14:54;;;;;;;;;;;;;;;16.36;60.23;100273.63;2038864;28;19918;-46
2022/02/19 04:15:54;;;;;;;;;;;;;;;16.36;60.26;100273.63;2034983;28;20369;-47
2022/02/19 04:16:54;;;;;;;;;;;;;;;16.36;60.26;100276.34;2036205;28;20588;-47
2022/02/19 04:17:55;;;;;;;;;;;;;;;16.35;60.08;100271.91;2038391;28;20322;-47
2022/02/19 04:18:55;;;;;;;;;;;;;;;16.36;60.05;100279.06;2032822;28;20066;-47
2022/02/19 04:19:55;;;;;;;;;;;;;;;16.35;59.99;100266.47;2035473;29;19915;-47
2022/02/19 04:20:56;;;;;;;;;;;;;;;16.35;60.18;100272.78;2035305;28;20694;-47
2022/02/19 04:21:56;;;;;;;;;;;;;;;16.35;60.05;100274.66;2035813;28;19923;-48
2022/02/19 04:22:56;;;;;;;;;;;;;;;16.35;60.29;100271.91;2030180;29;20273;-47
2022/02/19 04:23:57;;;;;;;;;;;;;;;16.36;60.33;100271.78;2037045;28;19922;-47
2022/02/19 04:24:57;;;;;;;;;;;;;;;16.36;60.09;100269.06;2037432;29;20563;-47
2022/02/19 04:25:57;;;;;;;;;;;;;;;16.35;60.00;100277.38;2035985;28;20847;-47
2022/02/19 04:26:57;;;;;;;;;;;;;;;16.36;60.11;100270.91;2036575;28;19918;-47
2022/02/19 04:28:02;;;;;;;;;;;;;;;16.36;60.11;100279.06;2035886;28;19923;-47
2022/02/19 04:29:03;;;;;;;;;;;;;;;16.36;59.98;100277.22;2036722;28;19923;-47
2022/02/19 04:30:04;;;;;;;;;;;;;;;16.36;60.15;100274.50;2035900;28;19921;-47
2022/02/19 04:31:05;;;;;;;;;;;;;;;16.36;60.20;100268.19;2035808;28;20333;-47
2022/02/19 04:32:05;;;;;;;;;;;;;;;16.35;60.13;100277.38;2036267;28;20330;-47
2022/02/19 04:33:06;;;;;;;;;;;;;;;16.37;60.13;100272.66;2035619;28;20017;-47
2022/02/19 04:34:06;;;;;;;;;;;;;;;16.36;60.05;100268.19;2038228;28;20258;-47
2022/02/19 04:35:06;;;;;;;;;;;;;;;16.36;60.17;100273.63;2036572;28;19928;-47
2022/02/19 04:36:07;;;;;;;;;;;;;;;16.36;59.85;100268.19;2034936;28;19923;-47
2022/02/19 04:37:07;;;;;;;;;;;;;;;16.36;60.08;100270.91;2036967;28;19914;-48
2022/02/19 04:38:08;;;;;;;;;;;;;;;16.36;60.01;100279.94;2043039;28;19922;-47
2022/02/19 04:39:08;;;;;;;;;;;;;;;16.37;59.96;100278.09;2033661;28;19922;-47
2022/02/19 04:40:09;;;;;;;;;;;;;;;16.34;60.24;100281.94;2036002;28;20266;-48
2022/02/19 04:41:09;;;;;;;;;;;;;;;16.35;60.08;100288.25;2038042;28;20172;-47
2022/02/19 04:42:09;;;;;;;;;;;;;;;16.35;60.28;100282.81;2037597;28;19952;-47
2022/02/19 04:43:10;;;;;;;;;;;;;;;16.35;60.04;100282.81;2036645;28;20245;-47
2022/02/19 04:44:10;;;;;;;;;;;;;;;16.34;60.00;100281.06;2033748;28;19922;-47
2022/02/19 04:45:11;;;;;;;;;;;;;;;16.32;60.14;100278.50;2035950;29;19922;-47
2022/02/19 04:46:11;;;;;;;;;;;;;;;16.33;60.27;100284.78;2036365;28;20073;-47
2022/02/19 04:47:11;;;;;;;;;;;;;;;16.32;60.14;100288.50;2035252;29;19954;-47
2022/02/19 04:48:12;;;;;;;;;;;;;;;16.32;59.97;100283.06;2038312;28;20249;-47
2022/02/19 04:49:12;;;;;;;;;;;;;;;16.32;60.09;100283.06;2034096;28;19923;-47
2022/02/19 04:50:13;;;;;;;;;;;;;;;16.32;60.10;100277.63;2036895;28;19923;-47
2022/02/19 04:51:13;;;;;;;;;;;;;;;16.32;60.04;100283.06;2038341;28;19918;-47
2022/02/19 04:52:13;;;;;;;;;;;;;;;16.31;60.15;100286.75;2036451;28;19926;-48
2022/02/19 04:53:14;;;;;;;;;;;;;;;16.32;60.18;100288.50;2038994;28;20211;-48
2022/02/19 04:54:14;;;;;;;;;;;;;;;16.31;60.14;100282.19;2035442;28;21464;-47
2022/02/19 04:55:15;;;;;;;;;;;;;;;16.31;60.09;100289.47;2037260;28;20750;-47
2022/02/19 04:56:15;;;;;;;;;;;;;;;16.31;60.16;100287.63;2034289;28;20316;-47
2022/02/19 04:57:15;;;;;;;;;;;;;;;16.31;60.14;100286.75;2036973;28;19925;-47
2022/02/19 04:58:16;;;;;;;;;;;;;;;16.32;60.14;100286.66;2038367;28;20452;-47
2022/02/19 04:59:16;;;;;;;;;;;;;;;16.31;60.14;100287.63;2037208;28;19919;-47
2022/02/19 05:00:17;;;;;;;;;;;;;;;16.30;60.20;100285.91;2037960;28;19918;-47
2022/02/19 05:01:17;;;;;;;;;;;;;;;16.32;60.07;100288.50;2034949;28;19929;-47
2022/02/19 05:02:18;;;;;;;;;;;;;;;16.31;60.04;100289.47;2037597;28;19924;-47
2022/02/19 05:03:18;;;;;;;;;;;;;;;16.31;60.04;100286.75;2035747;28;19962;-47
2022/02/19 05:04:19;;;;;;;;;;;;;;;16.33;60.00;100290.22;2037508;28;19922;-47
2022/02/19 05:05:19;;;;;;;;;;;;;;;16.31;60.19;100292.19;2042214;28;19968;-48
2022/02/19 05:06:20;;;;;;;;;;;;;;;16.31;60.00;100286.75;2036950;28;19969;-47
2022/02/19 05:07:21;;;;;;;;;;;;;;;16.31;60.06;100284.03;2036665;28;19968;-47
2022/02/19 05:08:21;;;;;;;;;;;;;;;16.31;60.13;100282.19;2033582;28;19957;-47
2022/02/19 05:09:22;;;;;;;;;;;;;;;16.31;59.93;100284.03;2037485;28;19922;-48
2022/02/19 05:10:22;;;;;;;;;;;;;;;16.31;59.90;100275.88;2036083;28;19914;-47